Prestupový termín
AUGUST 2007

Prehľad

hosťovania
prestupy
zamietnuté
neprerokované


schválené hosťovania

P.č. rodné číslo priezvisko, meno Odkiaľ Kam SK dátum schválené do ... pozn.
1 750327 MINTÁL Róbert VTJ Raj.Teplice OŠK Rosina 450 23.8.2007 31.7.2008
2 920824 ADAMÍK Tomáš Partizán V.Lehota MFK N.Baňa 300 23.8.2007 30.6.2011
3 830912 ADAMOVSKÝ Jozef Tatran Sučany ŠK Tur.Štiavnička 450 23.8.2007 30.6.2008
4 820318 AGÓCS Tomáš ŠM Blhovce FTC Fiľakovo 450 23.8.2007 ZH
5 870418 ALBERT Csaba Jánošík Rim.Janovce ŠK Bátka 450 23.8.2007 31.1.2008
6 770131 ANDOK Ivan Baník V.Krtíš OFK Stred. Plachtince 450 23.8.2007 30.6.2008
7 881112 ANTAL Vojtech FC 98 Hajnačka ŠM Blhovce 450 23.8.2007 30.6.2008
8 780625 ANTOL Miroslav OŠK Bešeňová OŠK Jamník 450 23.8.2007 30.6.2008
9 760625 BABIC Branislav ŠKP Tempus R.S. FK Zacharovce 450 23.8.2007 30.6.2008
10 720720 BABIC Milan ŠKP Tempus R.S. FK Zacharovce 450 23.8.2007 30.6.2008
11 910607 BAČA Martin ŠKF Baník Handlová FK Rakytovce 85 200 23.8.2007 30.6.2010
12 870222 BAČÍK Tomáš Jupie B.B.-Podlavice FK Šalková 300 23.8.2007 31.1.2008
13 770910 BAČO Ľudovít ŠKP Tempus R.S. FK Zacharovce 450 23.8.2007 30.6.2008
14 800111 BAČO Martin ŠKP Tempus R.S. FK Zacharovce 450 23.8.2007 30.6.2008
15 790107 BAČO Peter ŠKP Tempus R.S. FK Zacharovce 450 23.8.2007 30.6.2008
16 780630 BADAŇ Milan Tatran Sučany Dynamo Krpeľany 450 23.8.2007 30.6.2008
17 791228 BADŽGOŇ Miroslav TJ Olešná Polom Raková 450 23.8.2007 31.7.2008
18 900522 BAKOŠ Jaroslav Družst. Sklabiná Baník V.Krtíš 300 23.8.2007 30.6.2008
19 820423 BÁLINT Boris Iskra Hnúšťa CSM Tisovec 450 23.8.2007 31.7.2008
20 910712 BALLO Ján Družst. Belá Slovan Žabokreky 300 23.8.2007 31.7.2008
21 911227 BAMBURA Lukáš MFK Detva MFK Lok.Zvolen 300 23.8.2007 30.6.2010
22 911124 BANAS Michal Sokol Zubrohlava FK Rakytovce 85 200 23.8.2007 30.6.2008
23 900529 BANAŠ Ján Slovan Divín Baník Ružina 450 23.8.2007 ZH
24 820406 BARCAJ Milan Prameň D.Strehová Družst. Lehôtka 450 23.8.2007 30.6.2008
25 860601 BARČIK Michal OŠK Rudina RTJ Brodno 450 23.8.2007 28.2.2008
26 710312 BARI Alexander FTC Fiľakovo OŠK Biskupice 450 23.8.2007 30.6.2008
27 860401 BARIAK Michal Baník V.Krtíš MFK ZAEL M.Kameň 450 23.8.2007 31.1.2008
28 820804 BAROŠINEC Andraj OŠK Baník Stráňavy Družst. Valča 450 23.8.2007 31.1.2008
29 891021 BARTÁNUS Vladimír Družst.Lipt.Štiavnička 1.OFC Lip.Sliače 200 23.8.2007 31.7.2008
30 870412 BARTOLOVIC Ján Sitno Ban.Štiavnica Sokol Hiadeľ 300 23.8.2007 30.6.2008
31 920915 BELKO Martin Družst. Mýtna Slovan Divín 200 23.8.2007 30.6.2010
32 851113 BELKO Miroslav MŠK K.N.Mesto Slovan Rudinská 450 23.8.2007 31.1.2008
33 851113 BELKO Miroslav ŠK Radoľa MŠK K.N.Mesto 450 23.8.2007 ZH
34 790817 BERAN Miroslav SŠM Bolkovce Baník Kalinovo 450 23.8.2007 31.1.2008
35 821217 BLAHO Kamil ŠK Voznica PS Hliník n.Hr. 450 23.8.2007 30.6.2008
36 920710 BOBČEK Jakub Družst. Sklabiňa Pokrok Tur.Kľačany 300 23.8.2007 31.1.2008
37 710424 BOĎA Ján Družst.Ďanová Partizán Necpaly 450 23.8.2007 30.6.2008
38 910622 BOJKO Juraj ŠK Čierne FK Čadca 200 23.8.2007 31.1.2008
39 830913 BOLIBRUCH Tomáš TJ Trnové OŠK Rosina 300 23.8.2007 31.1.2008
40 680426 BRISUDA Vladislav Štart Dunajov Tatran Oščadnica 450 23.8.2007 30.6.2008
41 840913 BRNČAL Ľuboš Lok.ŽOS Vrútky IDOP Lipovec 450 23.8.2007 31.1.2008
42 790125 BRONTVAJ Branislav Oravan Or.Jasenica Družst. Vasilov 450 23.8.2007 30.6.2008
43 840120 BUZALKA Ján Máj Černová Sokol Komjatna 450 23.8.2007 30.6.2008
44 890625 BYSTRIANSKYPeter FK 85 Rakytovce Hronsek 300 23.8.2007 ZH
45 620912 BYTČANEK Peter Slovan Podvysoká Slávia Staškov 450 23.8.2007 31.1.2008
46 920103 CALLO Andrej Družst. Žaškov MFK D. Kubín 300 23.8.2007 30.6.2009
47 880803 CENIGA Marián ŠK Radoľa Slovan Rudinská 450 23.8.2007 30.6.2008
48 870215 CENIGA Stanislav ŠK Radoľa Slovan Rudinská 450 23.8.2007 30.6.2008
49 840202 CITARA Matej ŠK Selce Maladosť Lučatín 450 23.8.2007 30.6.2008
50 810221 CVACHO Michal Juventus ZA-Závodie Fatran Krasňany 450 23.8.2007 31.7.2008
51 880121 ČAKLOŠ Martin MFK N.Baňa OŠK Brehy 300 23.8.2007 28.2.2008
52 861018 ČASAR Erik MŠK Turany Družst. Belá 450 23.8.2007 31.1.2008
53 761130 ČATLOŠ Adrian Družst. Jasenie FK 34 Brusno 450 23.8.2007 30.6.2008
54 810804 ČECH Peter Tatran Sučany ŠK Tur.Štiavnička 450 23.8.2007 30.6.2008
55 880619 ČERVENEC Jozef MŠK K.N.Mesto ŠK Radoľa 450 23.8.2007 31.1.2008
56 871211 ČIŽ Peter ŠK Selce Družst. Baláže 300 23.8.2007 30.6.2008
57 771006 ČÍŽ Štefan Slovan Sklené Teplice MFK Žarnovica 450 23.8.2007 31.1.2008
58 880417 ČMELA Miloš Slovan Dudince Družst.Sebechleby 300 23.8.2007 31.1.2008
59 831121 DANIHEL Ondrej Fatran Varín Fatran Krasňany 450 23.8.2007 30.6.2008
60 851201 DANIHEL Pavol Fatran Varín Považan Nezb.Lúčka 450 23.8.2007 30.6.2008 .
61 751115 ĎANOVSKÝ Partizan Necpaly Družst. Belá 450 23.8.2007 31.1.2008
62 760801 DEBNÁR Pavel ŠK Závážná Poruba OFK Podtureň 450 23.8.2007 30.6.2008
63 920115 DEBNAR Tomáš Tatran Bzenica Sokol D.Ždaňa 200 23.8.2007 30.6.2009
64 770802 DEMKO Marek PS Hliník n.Hr. Sokol D.Ždaňa 300 23.8.2007 30.6.2008
65 780704 DEMKO Richard PS Hliník n.Hr. Tatran Bzenica 450 23.8.2007 30.6.2008
66 840510 DEMKO Stanislav OŠK Lisková OŠK Ivachnová 450 23.8.2007 31.7.2008
67 801221 DIANOVSKÝ Martin Partizan Necpaly Družst. Ďanová 450 23.8.2007 30.6.2008
68 910816 DIVOK Andrej FK 85 Rakytovce Hronsek 300 23.8.2007 ZH
69 740223 DODOK Radúz Slovan Dudince Tatran VLM Pliešovce 450 23.8.2007 30.6.2008
70 880107 DRDANKO Zoltán Nenince Inter Bátorová 450 23.8.2007 31.1.2008
71 921026 DUDEK Miroslav ŠK Rudno n.Hr. MFK N.Baňa 200 23.8.2007 30.6.2008
72 890912 ĎURICA Ján Družst. Bzovík MFK Strojár Krupina 200 23.8.2007 30.6.2008
73 921029 DVORSKÝ Róbert 1.FC Lipt.Sliače Družst. Lipt. Štiavnica 450 23.8.2007 31.7.2008
75 890909 FARKAŠ Pavel Slovan Kúpele Sliač MFK Lok.Zvolen 200 23.8.2007 ZH
76 810420 FAZEKAŠ Peter FC Husina FK Rim. Janovce 400 23.8.2007 31.1.2008
77 850616 FERANEC Vladimír Oravan Or.Jasenica Družst. Vasilov 450 23.8.2007 31.1.2008
78 910912 FERIANC Jaroslav OŠK Sása Tatran VLM Pliešovce 300 23.8.2007 31.7.2008
79 910107 FIAM Ľubomír MFK Lok.Zvolen FK Zvol.Slatina 300 23.8.2007 30.6.2008
80 910905 FIGURA Ivan Benzinol Stožok TJ Kriváň 400 23.8.2007 30.6.2008
81 711021 FÍZEĽ Róbert CŠK Cinobaňa Sklotatran Poltár 450 23.8.2007 30.6.2008
82 780422 FRÁTRIK Radovan VTJ Raj.Teplice ŠK Bela 450 23.8.2007 31.1.2008
83 660226 GAJDOŠ Jaroslav Prameň Kováčová Agro Ostrá Lúka 450 23.8.2007 30.6.2008
84 850715 GAMBOŠ Marek ŠK Juventus ZA Závodie AK Lúky 450 23.8.2007 31.1.2008
85 910601 GARDLÍK Peter Agro Budča MFK Lok.Zvolen 300 23.8.2007 30.6.2008
86 850826 GAŠINEC Peter MŠK K.N.Mesto ŠK Radoľa 450 23.8.2007 30.6.2008
87 771216 GÁŠPÁR Peter Družst. Tachty FC 98 Hajnačka 450 23.8.2007 31.12.2008
88 850910 GETTA Peter MŠK Turany Dynamo Krpeľany 450 23.8.2007 30.6.2008
89 870929 GIERTL Martin ŠK Savon B.B. ŠK Kremnička 450 23.8.2007 31.7.2008
90 930610 GIERTLI Ján Družst. Mýtna Slovan Divín 200 23.8.2007 30.6.2010
91 761007 GOMBALA Robert ŠM Blhovce FK Jesenské 450 23.8.2007 31.7.2008
92 850907 GONDA Milan Magnezit Lovinobaňa Tatran Breznička 450 23.8.2007 31.7.2008
93 860930 GRAŇÁK Zdenko MŠK Námestovo SEZ Lokca 450 23.8.2007 30.6.2008
94 920712 GREGOR Dušan Kriváň Lipt.Ondrášová ŠK Závažná Poruba 200 23.8.2007 30.6.2008
95 851205 GREGOR Milan Sokol Medzibrod FK 34 Brusno 450 23.8.2007 30.6.2008
96 850328 GREGOR Stanislav Pokrok Tur.Kľačany Lok.ŽOS Vrútky 450 23.8.2007 30.6.2008
97 871107 GREŠINA Martin Nenince Inter Bátorová 450 23.8.2007 31.1.2008
98 920304 GRIŽAK Michal Družst. Sihelné MŠK Námestovo 200 23.8.2007 30.6.2008
99 691123 GUBALA Roman FK Rim.Janovce Poľnohospodár V.Blh 450 23.8.2007 30.6.2008
100 911123 GUSTIŇÁK Lukáš Oravan Or.Jasenica Olympia Bobrov 300 23.8.2007 31.7.2008
101 871202 GUTWIRT Ernest OŠK Biskupice Baník Kalinovo 450 23.8.2007 31.1.2008
102 731208 GYŐRGY Csongor OŠK Radzovce 1. FK Buzitka 450 23.8.2007 30.6.2008
103 820216 HABĽÁK Michal MŠK Námestovo ŠK Tvrdošín 450 23.8.2007 31.1.2008
104 881124 HAJDEK Michal ŠKM Savon B.B. FK Šalková 300 23.8.2007 31.7.2008
105 910617 HANZEL Radoslav Partizán Necpaly FK Trebostovo 300 23.8.2007 30.6.2008
106 920129 HARICH Juraj Družst. Pribylina Tesla Lipt.Hrádok 300 23.8.2007 30.6.2008
107 910423 HERBRÍK Martin OŠK Sása Tatran VLM Pliešovce 300 23.8.2007 31.7.2008
108 900306 HIADLOVSKÝ Martin OPL Poniky FK Šalková 200 23.8.2007 31.7.2008
109 880112 HIRNER Pavol Sklotatran Poltár Družst Dlhá n.Or. 450 23.8.2007 30.6.2008
110 821102 HLINKA Martin PS Hliník n.Hr. Tatran Bzenica 450 23.8.2007 30.6.2008
111 841226 HLUŠÁK Marek ŠK Závážná Poruba Sokol Beňadiková 450 23.8.2007 30.6.2008
112 880622 HOLÝ Stanislav MFK N.Baňa OŠK Brehy 300 23.8.2007 30.6.2008
113 840828 HOMOLA Juraj MFK Lok.Zvolen Prameň Kováčová 300 23.8.2007 31.1.2008
114 821009 HORECKÝ Jozef KINEX Bytča ŠK D.Hričov 450 23.8.2007 31.7.2008
115 851223 HRABOŠ Marek Tatran Hrabové FK Predmier 450 23.8.2007 30.6.2008
116 910328 HRANICA Christián OFK Kotešová KINEX Bytča 300 23.8.2007 30.6.2008
117 860331 HRAŠKO Dušan MFK Detva Slovan Podkriváň 450 23.8.2007 30.6.2008
118 800303 HRIC Dušan FC Železná Breznica Slovan Kúpele Sliač 450 23.8.2007 31.7.2008
119 700616 HUDÁK Miroslav Sitno Ban.Štiavnica Dinas Ban.Belá 450 23.8.2007 30.6.2008
120 920110 HUNČÍK Erik Tatran Krásno n.Kys. FK Čadca 200 23.8.2007 31.1.2008
121 761209 HURÍK Ladislav Metalservis Králiky OFK Sl.Ľupča 300 23.8.2007 30.6.2008
122 830521 HUSÁRIK Marián OŠK Stráňavy VTJ Rajec. Teplice 450 23.8.2007 30.6.2008
123 810205 HVOLKA Roman Oravan Or.Jasenica Družst. Vasilov 450 23.8.2007 30.6.2008
124 760114 CHABREČEK Jozef FK Čadca Pokrok St.Bystrica 300 23.8.2007 31.1.2008
125 771021 CHLADNÝ Roman FK Nižná Družst. Dlhá n.Or. 450 23.8.2007 30.6.2008
126 801030 CHOMISTEK Martin FC Or. Podzámok Partizán Ľubela 450 23.8.2007 31.1.2008
127 881017 CHOVAN Miroslav ŠK Savon B.B. ŠK Kremnička 450 ,31.7.2008 31.7.2008
128 900215 CHOVAN Valerián Strojár Krupina Družst. Čabrad D.Badín 300 23.8.2007 ZH
129 800706 CHROMEK marek Družst. Látky Družst. Priechod 450 23.8.2007 31.1.2008
130 910921 CHUTNIAK Matúš Oravan Rabča MFK D. Kubín 300 23.8.2007 28.2.2008
131 920430 CHYĽA Matej Družst. Blatnica MŠK Fomat Martin 300 23.8.2007 30.6.2008
132 721030 IHNACÍK Milan Sokol Pan. Dravce SŠM Boľkovce 450 23.8.2007 30.6.2008
133 810623 IHRING Tibor Hronsek OŠK Babiná 300 23.8.2007 31.7.2008
134 880612 IVÁK Michal OFC Lipt.Sliače Družst. Lipt.Štiavnička 450 23.8.2007 31.7.2008
135 800510 IVAN Ronald SŠM Bolkovce Slovan Tomášovce 450 23.8.2007 30.6.2008
136 870109 JAKUBEC Marek MŠK K.N.Mesto ŠK Radoľa 450 23.8.2007 31.1.2008
137 920602 JAKUBIČ Lukáš KINEX Bytča OFK Kotešová 300 23.8.2007 30.6.2008
138 840622 JANÁČIK Miroslav Slovan Podvysoká TJ Olešná 450 23.8.2007 31.7.2008
139 850904 JANČO Marek MŠK Turany Dynamo Krpeľany 450 23.8.2007 30.6.2008
140 910518 JANČOVIČ Michal Slovan Bystrička MŠK Fomat Martin 300 23.8.2007 30.6.2008
141 920718 JAROŠ Jaroslav ŠK Závážná Poruba Poľana Hubová 300 23.8.2007 30.6.2008
142 840107 JAŠICA Ľubomír MŠK Námestovo Družst. Novoť 450 23.8.2007 31.1.2008
143 920218 JAŠUREK Patrik ŠK Čierne Slovan Skalité 300 23.8.2007 30.6.2008
144 881213 JENDRIŠEK Lukáš Družst. Dlhá n.Or. lovan Trstená 450 23.8.2007 31.7.2008
145 920501 JOŠTIAK Juraj MŠK Námestovo Slovan Magura Vavrečka 300 23.8.2007 31.1.2008
146 890429 JUHÁS Adam Slovan Tomášovce Družst. Podrečany 450 23.8.2007 ZH
147 900217 JURIGA Andrej TJ Lomná Diamond Tatran Or.Veselé 300 23.8.2007 30.6.2009
148 901128 JURÍK Richard Družst. Pribylina Tesla Lipt.Hrádok 300 23.8.2007 30.6.2008
149 920528 JURKULÁK Juraj Renop Lipt. Teplá OŠK Lisková 300 23.8.2007 30.6.2010
150 900318 KABINA Jozef Tatran Bzenica Sokol D.Ždaňa 200 23.8.2007 30.6.2009
151 910608 KAPIČÁK Patrik TJ Mutné MFK D. Kubín 300 23.8.2007 31.8.2008
152 920123 Kasanický Štefan FC Or. Podzámok MFK D. Kubín 300 23.8.2007 30.6.2011
153 890924 KASPER Lukáš Tatran Muraň CSM Tisovec 450 23.8.2007 31.7.2008
154 791005 KATINA Branislav MFK N.Baňa Partizán V.Lehota 300 23.8.2007 30.6.2009
156 801213 KELČÍK Dušan 1.OFC Lipt.Sliače Iskra Hrboltová 450 23.8.2007 31.7.2008
157 851209 KICKO Martin Sandrik D.Hámre MFK N.Baňa 450 23.8.2007 30.6.2011
158 900516 KÍŠIK Marek OPL Poniky FK Šalková 200 23.8.2007 31.7.2008
159 860705 KÍŠIK Marián Slovan Sliač Deltacomp S Lukavica 450 23.8.2007 30.6.2008
160 890807 KLIMO Martin Slovan Dudince Družst. Hont.Tesáre 200 23.8.2007 30.6.2010
161 880520 KLINČÍK Ivan FK 34 Brusno Sokol Nemecká 300 23.8.2007 30.6.2008
162 921019 KMEŤ Samuel Sokol Repište PS Hliník n.Hr. 300 23.8.2007 30.6.2008
163 900417 KÖBÖL Štefan FK Zacharovce Poľnohospodár V.Blh 300 23.8.2007 30.6.2008
164 921012 KOCIAN Dominik Partizán Suľov KINEX Bytča 300 23.8.2007 30.6.2009
165 901223 KOCIAN Lukáš KINEX Bytča Partizán Súľov 300 23.8.2007 ZH
166 871122 KOCTÚR Jozef ŠK Selce Družst. Baláže 300 23.8.2007 30.6.2008
167 710124 KOČIŠ Tomáš FK Jesenské Slovan Hr. Zalužany 300 23.8.2007 31.7.2009
168 910920 KOHÁR Matúš ŠK Tvrdišín Blatná Habovka 300 23.8.2007 31.7.2008
169 881224 KOHÁR Peter Montaplus Sásová Sokol Jakub 450 23.8.2007 30.6.2008
170 860119 KOLLÁR Jaroslav PS Hliník n.Hr. Tatran Bzenica 450 23.8.2007 30.6.2008
171 910126 KONC Ladislav Družst. Plášťovce FK Rakytovce 85 200 23.8.2007 30.6.2008
172 901107 KOPÁSEK Branislav Tatran Krásno n.Kys. REaMOS K.Lieskovec 300 23.8.2007 30.6.2009
173 811115/ KOPÁSEK Peter OŠK Rudina RTJ Brodno 450 23.8.2007 28.2.2008
174 911009 KOPČA Juraj Družst. Hôrky ŠK Bela 300 23.8.2007 31.7.2008
175 760717 KOPPER Marián Iskra Hnúšťa Fatran Krasňany 450 23.8.2007 31.7.2008
176 890928 KORÁB Tomáš MFK D.Kubín MŠK Námestovo 300 23.8.2007 ZH
177 911026 KOŠTIAĽ Patrik Tatran Lip.Osada FK Rakytovce 85 200 23.8.2007 30.6.2010
178 870701 KOVÁČ Anton ŠK Závážná Poruba Tesla Lipt.Hrádok 450 23.8.2007 30.6.2008
179 910210 KOVÁČ Tomáš Družst. Želovce Baník V.Krtíš 300 23.8.2007 31.7.2008/
180 880930 KOZÁK Marek MŠK Námestovo Olympia Bobrov 450 23.8.2007 31.1.2008
181 760308 KOZÁRIK Peter Železná Breznica MFK Lok.Zvolen 450 23.8.2007 ZH
182 840621 KOŽIK Pavel Tatran VLM Pliešovce ŠKP Krupina 450 23.8.2007 31.8.2008
183 810329 KRAHULEC Stanislav Družst.V.Blh FK Rim. Janovce 450 23.8.2007 31.1.2008
184 770704 KRAJČI Marián FC Železná Breznica Slovan Kúpele Sliač 450 23.8.2007 31.7.2008
185 890731 KRAKOVSKÝ Juraj OŠK Bešeňová OŠK Ivachnová 250 23.8.2007 ZH
186 910718 KRAKOVSKÝ Vladimír OŠK Lisková Renop Lipt.Teplá 300 23.8.2007 30.6.2010
187 811023 KRENIČAN Erik Nenince FK Bušince 450 23.8.2007 31.1.2008
188 710901 KRIŠKA Jaroslav ŠK Badín OFK Veľká Lúka 300 23.8.2007 30.6.2008
189 850123 KRIŠTOFIK Miroslav Družst. Valča Partizán Necpaly 450 23.8.2007 30.6.2008
190 790531 KRÍŽ Tomáš ŠKF Kremnica Tatran Turček 450 23.8.2007 30.6.2008
191 910113 KRIŽAN Tomáš Družst.Bzovík FK Rakytovce 85 200 23.8.2007 30.6.2010
192 790607 KRNÁČ Peter Družst. Očová Slovan Kúpele Sliač 450 23.8.2007 30.6.2008
193 921015 KROVINA Richard MŠK Námestovo Slovan Magura Vavrečka 300 23.8.2007 31.1.2008
194 830801 KRŠIAK Andrej ŠK Rudno n.Hr. Sokol D.Ždaňa 300 23.8.2007 30.6.2009
195 810603 KUBAČKA Marek Družst. Párnica Družst. Žaškov 300 23.8.2007 30.6.2008
196 910202 KUBALA Peter MŠK Fomat Martin Lok.ŽOS Vrútky 300 23.8.2007 30.6.2008
197 890720 KUBIŠ Mário Partizán Č.Balog TJ Detvianska Huta 450 23.8.2007 ZH
198 880401 KUCKA Michal Jupie B.B.-Podlavice Družst. Priechod 450 23.8.2007 31.1.2008
199 810404 KUJAN Milan MFK Lok.Zvolen Prameň Kováčová 300 23.8.2007 31.1.2008
200 880225 KULICH Juraj Sklotatran Poltár OŠK Uhorské 450 23.8.2007 30.6.2008
201 730511 KULJOVSKÝ Aleš Tatran Oščadnica ŠK Tvrdošín 450 23.8.2007 31.1.2008
202 790301 KUNSKÝ Ivan MFK Žarnovica ŠK Voznica 300 23.8.2007 30.6.2008
203 920803 KUPEC Štefan Prameň Kováčová MFK Lok.Zvolen 200 23.8.2007 31.1.2008
204 780404 KURŤÁK Andrej Oravan Or.Jasenica Družst. Vasilov 450 23.8.2007 30.6.2008
205 861030 KUŠNIAR Pavel Družst. Sklabiná ZAEL M.Kameň 450 23.8.2007 31.7.2008
206 910324 LABANT Michal ŠK Belá Fatran Dol.Tižina 300 23.8.2007 30.6.2008
207 830520 LACKO Marek Slovan Sliač Deltacomp S Lukavica 450 23.8.2007 30.6.2008
208 850613 LASIČKA Tomáš ŠK D.Hričov Družst.Hrič.Podhradie 300 23.8.2007 31.12.2009
209 910504 LAŠŠÁK Tadeáš MŠK Námestovo Olympia Bobrov 350 23.8.2007 31.1.2008
210 871223 LEHOCKÝ Ľubomír Partizán Č.Balog FK 34 Brusno 450 23.8.2007 31.1.2008
211 751224 LENDVAI Kristián Nenince Inter Bátorová 450 23.8.2007 31.1.2008
212 750922 LEŠKO Rastislav ŠK Selce Tatran Podkonice 450 23.8.2007 31.1.2008
213 820104 LIKOVČAN Miroslav 1.OFC Lipt.Sliače Iskra Hrboltová 450 23.8.2007 31.7.2008
214 870716 LÍNER Michal Montaplus Sásová OPL Poniky 300 23.8.2007 31.1.2008
215 680402 LOJDL Stanislav Fatran Varín OŠK Baník Stráňavy 450 23.8.2007 31.1.2008
216 850627 LŐRINČÍK Ľubomír Baník Kalinovo Tatran Breznička 450 23.8.2007 31.1.2008
217 920223 ĽUPTÁK Michal Družst. Dražkovce Slovan Žabokreky 300 23.8.2007 31.7.2008
218 860325 LUPTÁK Peter Junior Radvaň Sokol Medzibrod 300 23.8.2007 30.6.2008
219 880225 MÁČEK Lukáš Juventus ZA-Závodie Stránik Zástranie 450 23.8.2007 31.1.2008
220 821117 MADLEŇÁK Michal MŠK Námestovo Oravan Or. Jasenica 450 23.8.2007 31.1.2008
221 900123 MAGOČ Maroš Drienok Mošovce MŠK Fomat Martin 300 23.8.2007 30.6.2008
222 830821 MAGYAR Lóránt FTC Fiľakovo OŠK Biskupice 450 23.8.2007 31.7.2008
223 740122 MAJDÁK Pavel Družst. Dúbravy Družst. Očová 450 23.8.2007 30.6.2011
224 740125 MAJER Ladislav MFK ZAEL M.Kameň Družst.Želovce 450 23.8.2007 30.6.2008
225 851215 MAJER Martin PS Hliník n.Hr. Tatran Bzenica 450 23.8.2007 30.6.2008
226 850803 MAKOVÍNI Rudolf MFK Lok.Zvolen Sokol Sielnica 300 23.8.2007 30.6.2008
227 740529 MALATINEC Dušan Družst. Mýtna Družst. Podrečany 450 23.8.2007 30.6.2008
228 860309 MALČEK Matúš FK 34 Brusno Družst. Jasenie 450 23.8.2007 30.6.2008
229 880227 MALINÍK Lukáš FK Z.Slatina MFK Lok.Zvolen 450 23.8.2007 31.1.2008
230 850823 MÁRA Tomaš Juventus ZA-Závodie Stránik Zástranie 450 23.8.2007 31.1.2008
231 870624 MARČEK Jozef Turčan Košťany n.Tut. Družst. Belá 450 23.8.2007 30.6.2008
232 870224 MARKO Matej MFK N.Baňa ŠK Rudno n.Hr. 450 23.8.2007 30.6.2008
233 800731 MARKO Slavomír ŠK Heľpa Slovan Divín 300 23.8.2007 ZH
234 831024 MARTINÍK Peter MŠK Turany Polom Raková 450 23.8.2007 31.1.2008
235 861113 MASÁR Vladislav Cement.Liet.Lúčka Istrobanka Rajec 450 23.8.2007 31.1.2008
236 830503 MATUŠKA Jozef SŠM Bolkovce Slovan Tomášovce 300 23.8.2007 ZH
237 830503 MATUŠKA Jozef Slovan Tomášovce ŠK Rapovce 300 23.8.2007 30.6.2008
238 811125 MAZÚCH Miroslav Družst.Očová OŠK Lieskovec 450 23.8.2007 30.6.2008
239 881031 MAZÚCH Peter ŠK Savon B.B. ŠK Kremnička 450 23.8.2007 31.7.2008
240 770519 MAZÚR Peter ŠKF Kremnica Tatran Turček 450 23.8.2007 30.6.2008
241 871212 MAŽÁRI Tomáš Pokrok Tur.Kľačany Družst. Valča 450 23.8.2007 31.1.2008
242 860227 MELICHERĆÍK Martin MŠK Námestovo Tatran Klín 450 23.8.2007 30.6.2008
243 770801 MERČIAK Rastislav Prameň D.Strehová Baník Ružina 450 23.8.2007 30.6.2008
244 861127 MEŠKO Matej OŠK Ludrová Družst. Lipt.Štiavnica 450 23.8.2007 28.2.2008
245 900711 MIKEŠ Peter Sokol Sl.Pravno MŠK Fomat Martin 300 23.8.2007 30.6.2008
246 860306 MISTRÍK Michal Prameň Kováčová Sokol Turová 450 23.8.2007 31.7.2008
247 921113 MITTER Matej Družst.Čabrad-D.Kubín Družst. Bzovík 300 23.8.2007 30.6.2010
248 821028 MLICH Tomáš MŠK K.N.Mesto REaMOS K.Lieskovec 300 23.8.2007 30.6.2008
249 860128 MOGYORÓDI Otto ŠK Bátka FK Jesenské 450 23.8.2007 31.7.2008
250 840912 MORAVĆÍK Branislav ŠK Lúčky - Kúpele Družst. Bzovík 450 23.8.2007 31.7.2008
251 720819 MOTOŠKA Róbert Slovan Tmášovce Baník Ružina 300 23.8.2007 31.7.2008
251 770629 MOTRINEC Stanislav ŠK Závážná Poruba OFK Podtureň 450 23.8.2007 30.6.2008
252 900527 MOZE Michal Slovan Tomášovce Slovan Halič 300 23.8.2007 30.6.2009
253 900911 MOZOLA Michal OTJ Hont.Nemce Družst.Sebechleby 300 23.8.2007 31.1.2008
254 870821 MUDRÁK Jozef MFK Lok.Zvolen Sokol Sielnica 300 23.8.2007 30.6.2008
256 870805 MURÁRIK Marián Fatran Varín FK Strečno 450 23.8.2007 31.1.2008
257 920209 NAGY Adam FTC Fiľakovo OŠK Radzovce 450 23.8.2007 30.6.2008
258 770314 NÁSZLAZY Marián Družst. K.Kosihy FC Š Team. 450 23.8.2007 31.7.2008
259 840111 NECPAL Michal Sitno Ban.Štiavnica PS Hliník n.Hr. 450 23.8.2007 31.7.2008
260 690216 NETOLICKÝ Jiři PS Hliník n.Hr. Sitno Ban.Štiavnica 450 23.8.2007 31.7.2008
261 860519 NEVEĎAL Jozef REaMOS K.Lieskovec Snaha Zborov n.Byst. 450 23.8.2007 30.6.2008
262 870610 NOSÁĽ Slavomír Sklotatran Poltár OŠK Uhorské 450 23.8.2007 30.6.2008
263 870929 NOVOTNÝ Miroslav Slovan Tomášovce OŠK Uhorské 450 23.8.2007 30.6.2008
264 820315 NOZDROVICKÝ Zoltán Nenince Inter Bátorová 450 23.8.2007 31.1.2008
265 921010 OBERTÁŠ Maroš Družst. Kosorín OŠK Lutila 450 23.8.2007 30.6.2008
266 840710 OČENÁŠ Roman ŠK Selce Družst. Baláže 300 23.8.2007 30.6.2008
267 871125 OKULIAR Jozef MŠK K.N.Mesto Slovan Rudinská 450 23.8.2007 30.6.2008
268 911213 OLÁH Zoltán Slovan Tomášovce Družst. Podrečany 300 23.8.2007 30.6.2008
269 801127 ONDÁK Lukáš OŠK Rosina Hviezda Zádubnie 450 23.8.2007 31.1.2008
270 860607 ONDREJKA Mário Družst.Lipt.Štiavnica Družst.Lipt.Štiavnička 450 23.8.2007 30.6.2008
271 550923 ONDREJKA Pavel Družst.Lipt.Štiavnica Sokol Beňadiková 450 23.8.2007 31.7.2008
272 870707 ONDROVIČ Tomáš Máj Černová Iskra Hrboltová 450 23.8.2007 28.2.2008
273 890519 OŠKO Vladimír Partizán Ľubela Agro Baník Dúbrava 300 23.8.2007 30.6.2009
274 801110 OVŠÁK Tomáš Máj Černová Družst. Lipt.Štiavnica 450 23.8.2007 30.6.2008
275 860918 PAFČO Michal ŠK Tvrdošín Slovan Trstená 300 23.8.2007 31.7.2008
276 901207 PALÁRIK Stanislav Slávia Staškov TJ Olešná 300 23.8.2007 31.7.2008
277 740625 PALÁŠTHT Karol Sitno Ban.Štiavnica Dinas Ban.Belá 450 23.8.2007 30.6.2008
278 921007 PÁLEŠ Jaroslav MŠK Fomat Martin Sokol Sl.Pravno 300 23.8.2007 31.7.2008
279 901118 PALLER Kristián MFK N.Baňa OŠK Brehy 200 23.8.2007 ZH
280 900607 PAROBEK Ján Sklotatran Poltár Družst. Hr.Ves 300 23.8.2007 ZH
281 880211 PAROBEK Július Sklotatran Poltár OŠK Uhorské 450 23.8.2007 30.6.2008
282 880817 PAROBEK Matej FK 34 Brusno Družst. Jasenie 450 23.8.2007 30.6.2008
283 850726 PAROBEK Milan Slovan Hr.Zalužany Slovan Vidina 450 23.8.2007 31.7.2008
284 870816 PATYKA Michal OFK Kotešová KINEX Bytča 450 23.8.2007 31.1.2008
285 810730 PAULÍNY Pavel ŠK Závážná Poruba FK Lipt.Vlachy 450 23.8.2007 31.1.2008
286 900926 PAVLENDA Ondrej Družst.Bzovík FK Rakytovce 85 200 23.8.2007 30.6.2009
287 920717 PAVLÍK Marek Družst. Štiavnica MFK D. Kubín 300 23.8.2007 31.1.2008
288 860627 PENKSA Martin Baník V.Krtíš FC Š Team. 450 23.8.2007 31.7.2008
289 800505 PETREK Rastislav FK Nižná Roháče Zuberec 450 23.8.2007 30.6.2008
290 920904 PIAR Andrej OPL Poniky FK Šalková 200 23.8.2007 31.7.2008
291 911112 PIECKA Martin FK 85 Rakytovce Hronsek 300 23.8.2007 ZH
292 880502 PIKULA Matej FK 34 Brusno Družst. Jasenie 450 23.8.2007 30.6.2008
293 700717 PILÁR Peter FK Nižná TJ Blatná Habovka 300 23.8.2007 31.12.2008
294 881207 PIPICH Ivan Sokol Medzibrod FK 34 Brusno 450 23.8.2007 30.6.2008
295 831007 PISÁR Richard Dukla Sušany FK Ožďany 450 23.8.2007 30.6.2008
296 780611 PLANÉTA Jaroslav Spartak Vysoká n.Kys. Kysučan Korňa 300 23.8.2007 31.1.2008
297 750114 PLAVEC Milan Metalservis Králiky Sokol Jakub 450 23.8.2007 30.6.2008
298 920325 PLEVA Lukáš Slovan Magura Vavrečka MŠK Námestovo 300 23.8.2007 31.1.2008
299 860126 PLNIŠER Róbert MFK N.Baňa OŠK Brehy 300 23.8.2007 30.6.2008
300 920623 POBEHA Juraj Družst. Žaškov MFK D. Kubín 300 23.8.2007 30.6.2009
301 850723 PODMANICKÝ Viktor Tatran Krásno n.Kys. Rozkvet Klubina 300 23.8.2007 30.6.2008
302 700829 POLIAČEK František ŠK Závážná Poruba Tesla Lipt.Hrádok 450 23.8.2007 30.6.2008
303 850312 POLIAK Marek Sklotatran Poltár Družst. Hr.Ves 450 23.8.2007 30.6.2008
304 901217 POLONEC Tomáš Slovan Žabokreky Turčan Košťany n.Tur. 300 23.8.2007 30.6.2008
305 890822 PONIŠT Jakub Pokrok St.Bystrica Tatran Krasno n.Kys. 300 23.8.2007 31.1.2008
306 820213 PONIŠT Michal Pokrok Tur.Kľačany MŠK Turany 450 23.8.2007 31.7.2008
307 791212 PORUBAN Michal FK Dovalovo Fatran Krasňany 450 23.8.2007 30.6.2008
308 900822 PÔBIŠ Slavomír Partizan Č.Balog Sokol Braväcovo 200 23.8.2007 ZH
309 800208 PRAČKO Pavel Družst. Mýtna Baník Ružina 450 23.8.2007 31.1.2008
310 781024 PROSTREDNÝ Marek Mladosť Lučatín Slovan Kúpele Sliač 450 23.8.2007 30.6.2008
311 870822 PUCHEĽ Jozef FK Nižná Tatran Or.Veselé 450 23.8.2007 30.6.2008
312 911105 PÚPALA Ján OŠK Sása Tatran VLM Pliešovce 300 23.8.2007 31.7.2008
313 910809 RAČKO Jakub Družst. Pribylina Tesla Lipt.Hrádok 300 23.8.2007 30.6.2008
314 911209 RAČKO Jozef Družst.Terany Slovan Dudince 200 23.8.2007 30.6.2008
315 920127 RAJNOHA Tomáš Družst. Kosorín OŠK Lutila 450 23.8.2007 30.6.2008
316 921109 RATIČÁK Anton MŠK Námestovo Slovan Magura Vavrečka 300 23.8.2007 31.1.2008
317 910913 REISINGER Viliam Ipeľ Balog n.Ipľom FK Rakytovce 85 200 23.8.2007 30.6.2010
318 830420 REPISKÝ Jaroslav MFK Žarnovica MFK Lok.Zvolen 450 23.8.2007 31.1.2008
319 870511 ROM Marek Máj Černová Družst.Lipt.Štiavnička 450 23.8.2007 31.7.2008
320 850824 ROZEMBERG Ján Partizán Prochoť PS Hliník n.Hr. 450 23.8.2007 30.6.2008
321 880210 ROZENBERG Patrik Slovan Kúpele Sliač Sokol Sielnica 300 23.8.2007 30.6.2008
321 740610 RUBINT Rudolf Metalservis Králiky Sokol Jakub 450 23.8.2007 30.6.2008
322 810503 RYBOŇ Martin REaMOS K.Lieskovec Tatran Oščadnica 450 23.8.2007 30.6.2008
323 811120 SAJDAK Miroslav Dynamo Krpeľany MŠK Turany 450 23.8.2007 30.7.2008
324 911125 SALLAI Dávid FK Petrovce FC 98 Hajnačka 300 23.8.2007 31.7.2008
325 920624 SALUS Filip Slovan Trstená MŠK Námestovo 200 23.8.2007 31.7.2008
326 920617 SANIGA Lukáš Družst. Sklabiňá FK Rakytovce 85 200 23.8.2007 30.6.2008
327 840717 SERDEL Martin FC Or. Podzámok TJ Valaská Dubová 450 23.8.2007 31.8.2008
328 760728 SIROTA Martin FK Nižná ŠK Tvrdošín 300 23.8.2007 30.6.2008
329 881212 SITARČÍK Adrian Klas H.Hámre MFK Žarnovica 450 23.8.2007 30.6.2008
330 850429 SKABELLA Gabriel Agro V.Čalomija ZAEL M.Kameň 450 23.8.2007 31.7.2008
332 790928 SKOPAL Maroš Slovan Tomášovce Prameň D. Strehová 450 23.8.2007 30.6.2008
333 760703 SMUTNÝ Ľubomír Družst. Očová Slovan Kúpele Sliač 450 23.8.2007 31.1.2008
334 910606 SNOPKO Patrik FK 85 Rakytovce Hronsek 300 23.8.2007 ZH
335 780331 SOLIVAJ Ján Hronsek FK Šalková 300 23.8.2007 30.6.2008
336 910716 SOMORA Ján Slovan Bystrička MŠK Fomat Martin 300 23.8.2007 30.6.2008
337 850709 SPIŠIAK Ľubomír Sitno Ban.Štiavnica Dinas Ban.Belá 450 23.8.2007 30.6.2008
338 910304 SRHOLEC Michal MFK Detva TJ Kriváň 200 23.8.2007 30.6.2008
339 800615 STANČÍK Miroslav Družst. Cerovo Družst. Dač. Lom 450 23.8.2007 31.7.2008
341 850919 STANÍK Juraj MŠK K.N.Mesto FK Nesluša 450 23.8.2007 31.1.2008
342 881007 STEJSKAL Tomáš KINEX Bytča FKH Hlinik 450 23.8.2007 30.6.2008
343 760401 SUDIMÁK Štefan MFK Lok.Zvolen OŠK Babiná 300 23.8.2007 31.1.2008
345 860427 SUCHÝ Andrej Partizán Ľubela Agro Baník Dúbrava 450 23.8.2007 31.12.2008
346 920316 SUJA Milan Družst. Mýtna Slovan Divín 200 23.8.2007 30.6.2010
347 720127 SÚKENÍK Jaroslav Slovan Rudinská Tatran Oščadnica 450 23.8.2007 31.1.2008
348 701224 SVIRŽOVSKÝ Štefan PS Hliník n.Hr. Sitno Ban.Štiavnica 450 23.8.2007 30.6.2008
349 841024 SÝKORA Ján FC Š Team OFK Stred. Plachtince 450 23.8.2007 30.6.2008
350 770515 SZABÓ Gabriel ŠM Blhovce FK Jesenské 450 23.8.2007 31.7.2008
351 920306 SZEPESI Dávid Družst.Tachty FC 98 Hajnačka 300 23.8.2007 31.12.2008
352 900814 ŠEVEC Matuš Pokrok St.Bystrica FK Čadca 200 23.8.2007 30.6.2009
353 811114 ŠIMČÍK Ján FK Šalková Jupie B.B.-Podlavice 300 23.8.2007 31.1.2008
354 700719 ŠIMKO Stanislav PS Hliník n.Hr. Sitno Ban.Štiavnica 450 23.8.2007 31.7.2008
355 910321 ŠINTAJ Miroslav Liptov Vavrišovo Tesla Lipt.Hrádok 300 23.8.2007 30.6.2008
356 810128 ŠIŠKA Marek FK Nižná Roháče Zuberec 450 23.8.2007 30.6.2008
357 910506 ŠIŠKA Martin Družst.Lipt.Štiavnica 1.OFC Lip.Sliače 450 23.8.2007 31.7.2008
358 690125 ŠKAŘUPA Miroslav Junior Radvaň Družst. Priechod 450 23.8.2007 30.6.2008
359 770210 ŠKODA Karol Družst. Valča TVS Kláštor p.Zniev. 450 23.8.2007 30.6.2008
360 800328 ŠKOPÍK Ján MFK Lok.Zvolen MFK Detva 300 23.8.2007 30.6.2208
361 910430 ŠKULTÉTY Marek Družst. Želovce FK Rakytovce 85 200 23.8.2007 31.7.2008
362 920401 ŠMIHEL Marián SEZ Lokca MŠK Námestovo 200 23.8.2007 30.6.2008
363 890405 ŠPANKO Tomáš Tempo Partizánske FK Rakytovce 85 200 23.8.2007 30.6.2008
364 720428 ŠROT Pavol Sokol Nemecká FK Vyhne 300 23.8.2007 31.7.2008
365 790421 ŠTEFANKA Milan MFK Žarnovica FK Vyhne 300 23.8.2007 31.1.2008
366 750217 ŠTEFKO Adrian Slovan Kúpele Sliač Elán Zvolen 450 23.8.2007 30.6.2008
367 920630 ŠTROCEL Ľuboš Slovan Magura Vavrečka MŠK Námestovo 300 23.8.2007 31.1.2008
368 770614 ŠTULAJTER Pavol Sokol St.Hory Junior Radvaň 300 23.8.2007 31.1.2008
369 831109 ŠUHAJDA Marcel FK Jesenské FK Rim. Janovce 450 23.8.2007 31.8.2008
370 850321 ŠULAN Peter Turčan Košťany n.Tut. Družst.Belá 450 23.8.2007 31.1.2008
371 901011 ŠULC Martin Družst.Čabrad-D.Kubín Družst. Bzovík 300 23.8.2007 30.6.2009
372 890901 ŠURABÍK Štefan Junior Radvaň Družst. Priechod 450 23.8.2007 30.6.2008
373 810320 ŠVÁRNY Ľuboš OŠK Lisková TJ Valaská Dubová 450 23.8.2007 30.6.2008
374 900324 TOBĚRNÝ Michal FK Zv.Slatina MFK Lok.Zvolen 200 23.8.2007 30.6.2008
375 850415 TOKA Raman MŠK K.N.Mesto FK Nesluša 450 23.8.2007 31.1.2008
376 920708 TÖKŐLY Peter TJ H.Ždaňa Sokol D.Ždaňa 200 23.8.2007 30.6.2009
377 910317 TOMAŠOVIČ Miroslav OŠK Sása Tatran VLM Pliešovce 300 23.8.2007 31.7.2008
378 800514 TOMKA Michal Tatran Sučany ŠK Tur.Štiavnička 450 23.8.2007 30.6.2008
379 830808 TÓTH Ján FTC Fiľakovo OŠK Radzovce 450 23.8.2007 30.6.2008
380 780924 TOTH Richard ŠK Bátka FC 98 Hajnačka 450 23.8.2007 ZH
381 780924 TOTH Richard FC 98 Hajnačka FK Rim. Janovce 450 23.8.2007 30.6.2008
382 860219 TÓTH Štefan FC 98 Hajnačka TJ Tachty 300 23.8.2007 31.12.2008
383 690627 TOTH Tibor FK Veľký Blh FK Rim. Janovce 450 23.8.2007 30.6.2008
384 651119 TOTKOVIČ Ivan Baník Št. Bane Družst. Príbelce 450 23.8.2007 31.1.2008
385 881230 TRABALÍK Miroslav MŠK Námestovo ŠK Olympia Bobrov 450 23.8.2007 31.1.2008
386 790318 TRHANČÍK Jaroslav FK Strečno OŠK Rosina 450 23.8.2007 31.1.2008
387 880316 TRNOVSKÝ Tibor ŠK Savon B.B. ŠK Kremnička 450 23.8.2007 31.7.2008
388 861026 TROPEK Dominik Tatran Klin Slovan Trstená 300 23.8.2007 ZH
389 861026 TROPEK Dominik Slovan Trstená Sokol Liesek 300 23.8.2007 30.6.2008
390 831201 TURČAN Miroslav TJ Trnové OŠK Rosina 450 23.8.2007 31.1.2008
391 710609 TURČINA Marián Družst. Belá MŠK Fomat Martin 450 23.8.2007 31.7.2008
392 750828 TUŽINSKÝ Martin Družst.Hr.Dúbrava Družst.Očová 450 23.8.2007 30.6.2008
393 870528 TUŽINSKÝ Martin MFK N.Baňa ŠK Rudno n.Hr. 450 23.8.2007 30.6.2008
394 860602 TVRDÝ Juraj Slovan Rudinská Pokrok St.Bystrica 450 23.8.2007 31.7.2008
395 880502 UHLER Tomáš Sandrik D.Hámre OTJ Hont. Nemce 450 23.8.2007 ZH
396 910228 UHLIAR Tomáš FK Zv.Slatina MFK Lok.Zvolen 200 23.8.2007 30.6.2008
397 910903 URBANČOK Radovan Družst. Mýtna Slovan Divin 200 23.8.2007 30.6.2010
398 890406 VÁŇA Marek Lok SEZ Kraľovany Poľana Hubová 300 23.8.2007 31.7.2009
399 730818 VANČIK Marián ŠK D.Hričov OŠK Baník Stráňavy 450 23.8.2007 31.1.2008
400 841104 VANČÍK Štefan Družst. Hrič. Podhradie ŠK D.Hričov 450 23.8.2007 31.12.2009
401 830716 VARECHA ján Jupie B.B.-Podlavice Slovan Tajov 300 23.8.2007 30.6.2008
402 810706 VEGH Zoltán FTC Fiľakovo FC 98 Hajnačka 450 23.8.2007 30.6.2008
403 920915 VINCÚR Maroš Sokol Repište PS Hliník n.Hr. 300 23.8.2007 30.6.2008
404 871031 VLČEK Peter REaMOS K.Lieskovec Kysučan Ochodnica 300 23.8.2007 31.1.2008
405 900922 VRBOVKAI Jozef Inetr bátorová Baník V.Krtíš 300 23.8.2007 31.1.2008
406 780502 VYSKOČANI Igor ŠK Závážná Poruba ŠK Demänová 450 23.8.2007 30.6.2008
407 790425 WERESZKÝ Róbert Iskra Hnúšťa Sklotatran Poltár 450 23.8.2007 31.1.2008
408 781107 WIESINGER Pavel Jupie B.B.-Podlavice Slovan Tajov 300 23.8.2007 30.6.2008
409 920810 WILLIGER Richard Fatran Krasňany FK Strečno 300 23.8.2007 31.1.2008
410 850812 ZÁBAVČIK Martin KINEX Bytča FKH Hlinik 450 23.8.2007 30.6.2008
411 800207 ZAGYI Jozef FTC Fiľakovo FC 98 Hajnačka 450 23.8.2007 28.2.2008
412 830415/ ZACHAR Gabriel Agro V.Čalomija Baník V.Krtíš 450 23.8.2007 30.6.2008
413 830111 ZATEK Stanislav TJ Hlboké KINEX Bytča 450 23.8.2007 30.7.2008
414 870211 ZBONČIAK Róbert Prameň Kováčová Slovan Agro Budča 450 23.8.2007 31.1.2008
415 850410 ZBONČIAK Vladimír Prameň Kováčová Slovan Agro Budča 450 23.8.2007 31.1.2008
416 910508 ZELENÝ Miroslav MFK Tatran NAO L.M. ŠK Závažná Poruba 200 23.8.2007 30.6.2010
417 830713 ZEMAN Michal ŠKP Tempus R.S. FK Zacharovce 450 23.8.2007 30.6.2008
418 881107 ZEMAN Štefan FK Nižná Družst.Krivá 450 23.8.2007 30.6.2008
419 910511 ZLIECHOVEC Pavel Tatran Bzenica Sokol D.Ždaňa 200 23.8.2007 30.6.2009
420 831128 ZRNÍK Miroslav Sokol Stankovany Pokrok Tur.Kľačany 450 23.8.2007 30.6.2008
421 740618 ZSELYI Adrian OŠK Boľkovce 1.FK Buzitka 450 23.8.2007 30.6.2008
422 831031 ZUZIAK Miroslav Slovan Rudinská Tatran Oščadnica 450 23.8.2007 31.1.2008
425 781217 ZÚZIK Karol Lok.ŽOS Vrútky IDOP Lipovec 450 23.8.2007 31.7.2008
426 770830 ZVARA Ján Prameň Kováčová Agro Ostrá Lúka 450 23.8.2007 30.6.2008
427 860424 ŽELIEZKA Richard MFK Lok.Zvolen Sokol Sielnica 300 23.8.2007 30.6.2008
428 920427 ŽILKA Ján Prameň D.Strehová FK Rakytovce 85 200 23.8.2007 30.6.2011
429 860630 PATYKA Martin OFK Kotešová KINEX Bytča 450 23.8.2007 31.1.2008
430 921108 KÚŠIK Tomáš Slovan Sklené Teplice PS Hliník n.Hr. 300 23.8.2007 30.6.2011

schválené prestupy

P.č. rodné číslo priezvisko, meno odkiaľ materský oddiel kam nový oddiel SK dátum podľa článku pozn.
1 730729 ÁDAM Ján FK Bušince FC Š Team 450 23.8.2007 11/1
2 870416 ADAMČIK Radoslav Fk Trebostovo Tatran Bytčica 450 23.8.2007 11/1
3 820311 AGÓCS Tomáš FTC Fiľakovo FC 98 Hajnačka 450 23.8.2007 11/1
4 890815 ARVAJ Jozef Junior Radvaň FK Rakytovce 85 200 23.8.2007 11/1
5 890225 BAČA Lukáš Junior Radvaň FK Rakytovce 85 200 23.8.2007 11/1
6 770812 BALÁŽ Robert Prameň Kováčová Junior Radvaň 300 23.8.2007 11/1
7 890731 BARTOŠ Zoltán Tatran Č.Balog Partizán Č.Balog 300 23.8.2007 11/1
8 790213 BAVALA Vladimír ŠK Badín Deltacomp Lukavica 450 23.8.2007 11/1
9 900621 BEREŠ Marek Sokol Nemecká FK 34 Brusno 300 23.8.2007 11/1
10 920208 BLAŠKO Norbert Slovan Kúpele Sliač Prameň Kováčová 200 23.8.2007 11/1
11 911230 BOBČÍK Ján Spartak Vysoká n.Kys. Javorník Makov 200 23.8.2007 11/1
12 700927 BORGOŇ Marián MFK Lok. Zvolen OŠK Lieskovec 450 23.8.2007 11/1
13 560824 BOSÁK Ján Družst.Dačov Lom Družst. Očová 450 23.8.2007 11/1
14 890825 BRNDIAR Tomáš Junior Radvaň FK Rakytovce 85 300 23.8.2007 11/1
15 891207 BULEJ Lukáš Junior Radvaň FK Čadca 200 23.8.2007 11/1
16 900706 BYSTRIANSKY Branislav FK Rakytovce 85 ŠK Badín 300 23.8.2007 11/1
17 890625 BYSTRIANSKY Peter Hronsek ŠK Badín 300 23.8.2007 11/1
18 881224 CAGARDA Lukáš FK Trebostovo Družst. Belá 450 23.8.2007 11/1
19 920921 CIBAŇÁK Mário Máj Černová OŠK Ludrová 300 23.8.2007 11/1
20 871123 CIESARIK Tomáš KINEX Bytča Hlboké 450 23.8.2007 11/1
21 861231 CSABA Zoltán Slovan Halíč SŠM Boľkovce 450 23.8.2007 11/1
22 911017 CYPRICH Tomáš Spartak Vysoká n.Kys. Javorník Makov 200 23.8.2007 11/1
23 860729 ČIČALA Lukáš Slovan Rudinská OŠK Rudina 450 23.8.2007 11/1
24 910501 ČINČALA Pavol Spartak Vysoká n.Kys. Javorník Makov 200 23.8.2007 11/1
25 910110 DEDIČ Matej Spartak Vysoká n.Kys. Javorník Makov 200 23.8.2007 11/1
26 910816 DIVOK Andrej Hronsek ŠK Badín 300 23.8.2007 11/1
27 900703 DOČÁR Roman Spartak Vysoká n.Kys. Javorník Makov 200 23.8.2007 11/1
28 780625 DONOVAL Igor Jupie B.B.-Podlavice ŠK Badín 300 23.8.2007 11/1
29 870812 DROBA Adam Prameň Kováčová Družst. Očová 450 23.8.2007 11/1
30 831018 ĎURČOK Miloš Baník V. Krtiš Družst. Príbelce 450 23.8.2007 11/1
31 891106 FARKAŠ Richard Junior Radvaň FK Rakytovce 85 200 23.8.2007 11/1
32 910219 FODREK Michal Sokol Slov.Pravno Slovan Žabokreky 300 23.8.2007 11/1
33 901021 FORTIAK Martin Junior Radvaň FK Rakytovce 85 200 23.8.2007 11/1
34 881123 GAJDOŠ Miroslav ŠK Radoľa Slovan Ľadon.Hora 450 23.8.2007 11/1
35 900104 GAŇA Ján KINEX Bytča Hlboké 300 23.8.2007 11/1
36 921114 GAZDÍK Maroš RTJ Brodno OŠK Snežnica 200 23.8.2007 11/1
37 800802 GEJDOŠ Peter Družst. Veličná Sokol Komjatna 450 23.8.2007 11/1
38 890924 GRIGA Dušan Slávia Staškov TJ Olešna 450 23.8.2007 11/1
39 860711 GRZNÁR Ľudovít ŠK Radoľa Slovan Ľadon.Hora 450 23.8.2007 11/1
40 770415 HÁJNIK Milan 0707/866 Slovan Ľadon.Hora 450 23.8.2007 11/1
41 840630 HALVOŇ Peter MŠK Turany ŠK Tur.Štiavnička 450 23.8.2007 11/1
42 860514 HANYUS František FC 98 Hajnačka ŠM Blhovce 450 23.8.2007 11/1
43 750104 HANZEL Mário Lok.ŽOS Vrútky FK Šalková 400 23.8.2007 11/1
44 890921 HARVANEK Ľuboš OŠK Nededza TJ Kotrč. Lúčka 450 23.8.2007 11/1
45 901228 HAVERLA Róbert MŠK Fomat Martin Tatran Sučany 200 23.8.2007 11/1
46 900908 HEJTFLAJŠ Matej Spartak Vysoká n.Kys. Javorník Makov 200 23.8.2007 11/1
47 790504 HOLEŠČÁK Michal KINEX Bytča MŠK K.N.Mesto 450 23.8.2007 11/1
48 730820 HOLLÝ Marek ŠKF ZTS VTJ Martin MŠK Fomat Martin 450 23.8.2007 11/1
49 790703 HRNČIŘ Daniel Jupie B.B.-Podlavice ŠK Badín 300 23.8.2007 11/1
50 820130 HUDAČEK Ján MFK Revúca MFK Jelšava 450 23.8.2007 11/1
51 890520 HUDEC Tomáš Hronsek ŠK Badín 300 23.8.2007 11/1
52 880822 HVIZDÁK Michal ŠK D.Hričov Družst.Hrič.Podhradie 300 23.8.2007 11/1
53 911228 CHLEBEK Peter Spartak Vysoká n.Kys. Javorník Makov 200 23.8.2007 11/1
54 870627 CHODELKA Peter Juventus Žilina-Závodie Považan Nez.Lúčka 300 23.8.2007 11/1
55 910721 CHUDINA Matej MŠK K.N.Mesto Slovan Povina 300 23.8.2007 11/1
56 910426 JAĎUĎ Milan Slovan Dudince Družst.Terany 300 23.8.2007 11/1
57 750305 Jančiar Peter FK 34 Brusno FK Šalková 300 23.8.2007 11/1
58 640702 JANEC Pavol FK Nesluša Slovan Rudinská 450 23.8.2007 11/1
59 860726 JANUŠ František ŠK D.Hričov Družst.Hrič.Podhradie 300 23.8.2007 11/1
60 910905 JANUŠ Tomáš MŠK K.N.Mesto Slovan Povina 300 23.8.2007 11/1
61 901029 JURIŠTA Branislav Spartak Vysoká n.Kys. Javorník Makov 200 23.8.2007 11/1
62 890315 KACZOREK Róbert MFK ZAEL M.Kameň Baník V.Krtíš 450 23.8.2007 11/1
63 880203 KALMÁR Ladislav FC 98 Hajnačka ŠM Blhovce 450 23.8.2007 11/1
64 860601 KANKA Marek OŠK Baník Stráňavy Rozvoj Mojš 300 23.8.2007 11/1
65 650208 KANOŠ Jozef ŠK Heľpa OPL Poniky 300 23.8.2007 11/1
66 770626 KAPIAŠ Zdeno Družst.Ďanová Družst. Blatnica 300 23.8.2007 11/1
67 881215 KAPLÍK Miloš ŠK Radoľa Slovan Ľadon.Hora 450 23.8.2007 11/1
68 910812 KAZÍK Jakub Spartak Vysoká n.Kys. Javorník Makov 200 23.8.2007 11/1
69 891118 KIŠŠ Lukáš Junior Radvaň FK Rakytovce 85 200 23.8.2007 11/1
70 830226 KLACKO Richard KINEX Bytča ŠK Petrovce 450 23.8.2007 11/1
71 800705 KLENIAR Igor Slovan Tajov Junior Radvaň 300 23.8.2007 11/1
72 720304 KLIMENT Ján Baník V. Krtiš MFK ZAEL M.Kameň 450 23.8.2007 11/1
73 900510 KLUKA Otto FC 98 Hajnačka Družst. Tachty 300 23.8.2007 11/1
74 921201 KNAPEC lukáš Istrobanka Rajec Družst. Zbyňov 300 23.8.2007 11/1
75 900620 KÖBÖL Vojtech Junior Radvaň FK Rakytovce 85 200 23.8.2007 11/1
76 880906 KOCIAN Marek Partizán Suľov KINEX Bytča 450 23.8.2007 11/1
77 891022 KOHÁRIK Dezider 1 FK Buzitka FK Ožďany 300 23.8.2007 11/1
78 640701 KOLLÁR Marián Slovan Dudince Družst. Terany 300 23.8.2007 11/1
79 911211 KOPÁSEK Marek Štart Dunajov REaMOS Kys.Lieskovec 300 23.8.2007 11/1
80 920426 KOPIŠ Filip MŠK Fomat Martin Družst. Belá 300 23.8.2007 11/1
81 890928 KORÁB Tomáš MŠK Námestovo Slovan Magura Vavrečka 300 23.8.2007 11/1
82 910215 KOŠÚT Ján MFK Detva MFK Lok.Zvolen 300 23.8.2007 11/1
83 890608 KOTRÍK Peter Istrobanka Rajec FK Ďurčina 450 23.8.2007 11/1
84 890212 KOVÁČ Lubomír Sokol Nemecká FK 34 Brusno 300 23.8.2007 11/1
85 910318 KOVÁČ Martin FK Bušince TJ Veľ.Zlievce 300 23.8.2007 11/1
86 830814 KOVÁČ Peter Družst. Terany Slovan Dudince 300 23.8.2007 11/1
87 890328 KOVALÍČEK Jozef Junior Radvaň FK Rakytovce 85 200 23.8.2007 11/1
88 760308 KOZÁRIK Peter MFK Lok. Zvolen OŠK Lieskovec 450 23.8.2007 11/1
89 890612 KRAHULEC Martin MFK ZAEL M.Kameň Baník V.Krtíš 450 23.8.2007 11/1
90 890707 KRAJÍČEK Ivan OŠK Nededza TJ Kotrč. Lúčka 450 23.8.2007 11/1
91 800905 KRAJIČEK Martin Jednota Bánová FC Bitarová 450 23.8.2007 11/1
92 860131 KUBALA Dávid OŠK Lisková Sokol Komjatna 450 23.8.2007 11/1
93 751017 KUBINA Rastislav ŠK Selce FK Šalková 300 23.8.2007 11/1
94 910524 KUBINEC Pavol Spartak Vysoká n.Kys. Javorník Makov 200 23.8.2007 11/1
95 721210 KUČERA Jozef MFK Lok. Zvolen Baník Ružina 450 23.8.2007 11/1
96 770630 KUDELKA Daniel Lok.ŽOS Vrútky MŠK Turany 450 23.8.2007 11/1
97 830626 KUDLA Jaroslav OŠK Rosina OŠK Nededza 450 23.8.2007 11/1
98 891004 KUNA Michal ŠK Bobrovec MFK Tatran L.Mikuláš 300 23.8.2007 11/1
99 890303 KUPČÍK Ľuboš Junior Radvaň FK Rakytovce 85 200 23.8.2007 11/1
100 770110 KURČÍK Marek SkloTatran Poltár ŠK Montaplus Sásová 300 23.8.2007 11/1
101 890927 KUTLIAK Dušan FK Záhorce Baník V.Krtíš 300 23.8.2007 11/1
102 910316 KVAS Jozef MFK Strojár Krupina OTJ Hont.Nemce 300 23.8.2007 11/1
103 891128 KVOS Gabriel FK Veľký Blh ŠK Čerenčany 450 23.8.2007 11/1
104 680519 LAČNÝ Viliam ŠK Badín Sokol Jakub 300 23.8.2007 11/1
105 850331 LAPIN Ján MFK Lok. Zvolen MFK Detva 300 23.8.2007 11/1
106 860707 LASIČKA Marián ŠK D.Hričov Družst.Hrič.Podhradie 300 23.8.2007 11/1
107 851026 LAUROV Vladimír Klas H.Hámre MFK Žarnovica 450 23.8.2007 11/1
108 900202 LAVRENČÍK Matej Junior Radvaň FK Rakytovce 85 200 23.8.2007 11/1
109 891106 LOUČKA Peter Savon B.Bystrica Jupie B.B.-Podlavice 300 23.8.2007 11/1
110 820721 LUKÁČ Jozef OŠK Lisková Sokol Komjatna 450 23.8.2007 11/1
111 871019 LULÁK Jozef KINEX Bytča OFK Kotešová 300 23.8.2007 11/1
112 900425 LUPRICH Lukáš Spartak Vysoká n.Kys. Javorník Makov 200 23.8.2007 11/1
113 910429 LUPTÁK Richard Junior Radvaň FK Rakytovce 85 200 23.8.2007 11/1
114 901029 MACKO Lubomír Junior Radvaň FK Rakytovce 85 200 23.8.2007 11/1
115 690527 MAJERSKÝ Juraj ŠK Badín Deltacomp Lukavica 450 23.8.2007 11/1
116 830202 MAKOVNÍK Viliam Jupie B.B.-Podlavice ŠK Badín 300 23.8.2007 11/1
117 890707 MASNÝ Dávid Družst. Hôrky Družst. Babkov 200 23.8.2007 11/1
118 740424 MATˇUŠ Marián Dynamo Príbovce Družst. Valča 450 23.8.2007 11/1
119 640810 MIČUDA Jozef MFK Strojár Krupina Slovan Dudince 450 23.8.2007 11/1
120 900508 MICHALSKÝ Matej Baník Štiav.Bane DINAS Ban.Belá 300 23.8.2007 11/1
121 910717 MIKOLÁŠ Lukáš KINEX Bytča TJ Kolárovice 300 23.8.2007 11/1
122 890429 MITAŠ Roman KINEX Bytča TJ Sveredník 450 23.8.2007 11/1
123 800620 MLYNARČÍK Martin FK 34 Brusno Sokol Hiadeľ 300 23.8.2007 11/1
124 660503 MOŠKO Igor MFK N.Baňa ŠK Rudno n.Hr. 450 23.8.2007 11/1
125 890403 MRˇAZ Milan Junior Radvaň FK Rakytovce 85 200 23.8.2007 11/1
126 900601 NÁRODA Ján SkloTatran Poltár Družst. Hrnč. Ves 300 23.8.2007 11/1
127 770515 NOCIAR Viliam Mladosť Zvolen Družst. Dačov Lom 450 23.8.2007 11/1
128 891211 NOGA Peter ŠK Gbeľany FK Terchová 450 23.8.2007 11/1
129 911224 NOZDROVICKÝ Róbert Vinohrad Čebovce Baník V.Krtíš 300 23.8.2007 11/1
130 910209 OLÁH Patrik FK Bušince TJ Veľ.Zlievce 300 23.8.2007 11/1
131 840406 OLÁH Zoltán Štart Kokava n.Rim. Družst. Klenovec 450 23.8.2007 11/1
132 890329 ONDROVIČ Michal Družst.Lip.Štiavnica Máj Černová 300 23.8.2007 11/1
133 911125 OŠIPANÍK Ján Spartak Vysoká n.Kys. Javorník Makov 200 23.8.2007 11/1
134 890307 PAPRČKA Tomáš ŠK Demänová ŠK Záv. Poruba 200 23.8.2007 11/1
135 881215 PARKÁNI Tomáš MFK ZAEL M.Kameň Družst. Príbelce 450 23.8.2007 11/1
136 790604 PAUČO Pavel Družst. Mýtna Šlachtiteľ Vigľaš-Pstruša 450 23.8.2007 11/1
137 900429 PAUER Erik Junior Radvaň FK Rakytovce 85 200 23.8.2007 11/1
138 910706 PAVLÍK Jozef Spartak Vysoká n.Kys. Javorník Makov 200 23.8.2007 11/1
139 810214 PAŽÍTKA Ferdinand 1.FC Lipt.Sliače Družst. Lipt.Štiacvnička 450 23.8.2007 11/1
140 800314 PERUTKAY Peter MFK Žarnovica Klas H.Hámre 450 23.8.2007 11/1
141 911122 PIECKA Martin Hronsek ŠK Badín 300 23.8.2007 11/1
142 900731 PLANETA Tomáš Spartak Vysoká n.Kys. Javorník Makov 200 23.8.2007 11/1
143 740203 PLÁVKA Roman OŠK Lisková 1 OFC Lip.Sliače 450 23.8.2007 11/1
144 861122 POLKO Miroslav KINEX Bytča OFK Kotešová 450 23.8.2007 11/1
145 901120 POVAŽAN Tomáš Junior Radvaň FK Rakytovce 85 200 23.8.2007 11/1
146 910927 PROKOP Lukáš 1.FC Lipt.Sliače Družst. Lipt. Štiavnica 300 23.8.2007 11/1
147 900208 PUTERA Radoslav FK Rakytovce 85 Slovan Kúpele Sliač 200 23.8.2007 11/1
148 810109 RADIČ Alexander Štart Kokava n.Rim. Družst. Klenovec 450 23.8.2007 11/1
149 910226 RAJČAN Ladislav FK Ďurčina Istrobanka Rajec 300 23.8.2007 11/1
150 761111 RÁNO Radoslav MontaPlus Sásová ŠK Zornička Riečka 300 23.8.2007 11/1
151 811223 RATAJ Michal MŠK Turany ŠK Tur.Štiavnička 450 23.8.2007 11/1
152 880914 REMIŠ Stanislav ŠK Radoľa Slovan Ľadon.Hora 450 23.8.2007 11/1
153 840611 RENDLA Ľuboš MFK Žarnovica Klas H.Hámre 450 23.8.2007 11/1
154 870316 ROZEMBERG Lukáš PS Hliník n.Hr. Partizán Hrochoť 300 23.8.2007 11/1
155 910824 RUBINT Peter Junior Radvaň ŠK Rapovce 200 23.8.2007 11/1
156 920830 RUML Enrik MFK D.Kubín Družst. Veličná 300 23.8.2007 11/1
157 780810 SARVAŠ Dušan MFK Revúca FK Veľký Blh 450 23.8.2007 11/1
158 900330 SEDLÁČEK Peter FC 34 L.M.-Palúdzka Kriváň Lipt.Ondrašová 300 23.8.2007 11/1
159 791021 SCHNIERER Jozef ŠM Kremnické Bane Tatran Turček 450 23.8.2007 11/1
160 701031 SKUBAN Miloš ŠK Tvrdošín Blatná Habovka 450 23.8.2007 11/1
161 910316 SLIACKY Martin Junior Radvaň FK Rakytovce 85 200 23.8.2007 11/1
162 910606 SNOPKO Patrik Hronsek ŠK Badín 300 23.8.2007 11/1
163 641103 SOJÁK Dušan Metalservis Králiky Slovan Tajov 300 23.8.2007 11/1
164 901007 SOJKA Ján Junior Radvaň FK Rakytovce 85 200 23.8.2007 11/1
165 901207 SOJKA Matej Spartak Vysoká n.Kys. Javorník Makov 200 23.8.2007 11/1
166 901120 SPIŠŠÁK Filip Lok.ŽOS Vrútky IDOP Lipovec 300 23.8.2007 11/1
167 910716/ STRAJŠÍ Matej Junior Radvaň FK Rakytovce 85 200 23.8.2007 11/1
168 910727 STRELEC Ján Slovan Dudince Družst.Terany 300 23.8.2007 11/1
169 910717 SUDOR Vladimír FK Ďurčina Istrobanka Rajec 300 23.8.2007 11/1
170 900410 SYROVÝ Vladimír Spartak Vysoká n.Kys. Javorník Makov 200 23.8.2007 11/1
171 840124 SZABÓ Patrik FTC Fiľakovo OŠK Biskupice 450 23.8.2007 11/1
172 790630 ŠALKO Ľubomír Jednota Málinec OŠK Uhorské 450 23.8.2007 11/1
173 870103 ŠINAL Peter MŠK Turany Javorina 450 23.8.2007 11/1
174 910919 ŠKULTÉTY Michal Junior Radvaň FK Rakytovce 85 200 23.8.2007 11/1
175 720802 ŠMEHÍL Ľubomír ŠK D.Hričov OŠK Baník Stráňavy 450 23.8.2007 11/1
176 891103 ŠPANIK Lukáš Jednota Bánová TJ Bitarová 200 23.8.2007 11/1
177 780103 ŠPANO Marek MFK Žarnovica OŠK Lieskovec 450 23.8.2007 11/1
178 830409 ŠPIRKO Marián MŠK Turany ŠK Tur.Štiavnička 450 23.8.2007 11/1
179 830920 ŠTEFANIČIAK Marián MŠK Turany ŠK Tur.Štiavnička 450 23.8.2007 11/1
180 861218 ŠTEUS Tomáš Jednota Bánová Tatran Bytčica 450 23.8.2007 11/1
181 910305 ŠTUBIAN Ján Junior Radvaň FK Rakytovce 85 200 23.8.2007 11/1
182 901002 ŠUSTEK Daniel Junior Radvaň FK Rakytovce 85 200 23.8.2007 11/1
183 750208 ŠVANTNER Vojtech ŠK Selce FK Šalková 300 23.8.2007 11/1
184 670929 TAVEL Miroslav Družst. Valča ŠK Tur.Štiavnička 450 23.8.2007 11/1
185 891125 TOKÁR Ján ŠKM Savon B.B. ŠK Selce 300 23.8.2007 11/1
186 920721 TOMKULIAK Jakub MFK D.Kubín Družst. Krivá 300 23.8.2007 11/1
187 860820 TUROŇ Jozef Iskra Hnúšťa Družst. Veľ. Teriakovce 450 23.8.2007 11/1
188 720224 URBAN Eduard Prameň Kováčová Slovan Agro.Budča 450 23.8.2007 11/1
189 811103 URBÁNEK Jozef FK Nesluša Slovan Rudinská 450 23.8.2007 11/1
190 850119 URSÍNY Marek MontaPlus Sásová FK Šalková 300 23.8.2007 11/1
191 890813 VACULČIAK Jozef Baník Kalinovo Tatran Breznička 450 23.8.2007 11/1
192 890528 VAJDA Ivan Fatran Varín Fatran D.Tížina 450 23.8.2007 11/1
193 891210 VAJDEČKA Ľubomír Slovan Trstená ŠK Tvrdošín 450 23.8.2007 11/1
194 890501 VAJS Ľuboš FO Kriváň MFK Detva 300 23.8.2007 11/1
195 891107 VALENTÝNI Peter Junior Radvaň FK Rakytovce 85 200 23.8.2007 11/1
196 880529 VARECHA Miroslav Javorník Makov Spartak Vysoká n.Kys. 300 23.8.2007 11/1
197 890126 VESELÝ Michal OŠK Nededza TJ Kotrč. Lúčka 450 23.8.2007 11/1
198 780127 VILHAN Andrej Družst. Veľ.Teriakovce Slovan Hrn.Zalužany 450 23.8.2007 11/1
199 890712 VIMPEĽ Peter Cemnt.Liet.Lúčka Kotrč.Lúčka 300 23.8.2007 11/1
200 871221 VOJTAŠ Miloš ŠK Radoľa Slovan Ľadon.Hora 450 23.8.2007 11/1
201 890627 VOLEK Dávid Junior Radvaň FK Rakytovce 85 200 23.8.2007 11/1
202 870715 VRABEL Michal ŠK Belá Fatran Krasňany 450 23.8.2007 11/1
203 800608 ZÁBORSKÝ Branko MFK Lok. Zvolen OŠK Lieskovec 450 23.8.2007 11/1
204 880114 ZAŤKO Marek Baník V. Krtiš Vinohrad Čebovce s 23.8.2007 11/1
205 890212 ZATRÁK Ján Fatran Varín Fatran D.Tížina 450 23.8.2007 11/1
206 890109 ZÁTURECKÝ Juraj OŠK Lieskovec MFK Lok.Zvolen 450 23.8.2007 11/1
207 880606 ZVIZDECKIJ Alexander MFK N.Baňa FK Vyhne 450 23.8.2007 11/1
208 840925 ŽIARA Ľuboš Dynamo Príbovce Družst. Valča 450 23.8.2007 11/1
209 721118 ŽOFAJ Anton Oravan Or. Jasenica Tatran Klin 450 23.8.2007 11/1
210 870228 NOSÁK Tomaš Lok.ŽOS Vrútky Pokrok T.Kľačany 450 23.8.2007 11/1

zamietnuté podania

P.č. rodné číslo priezvisko, meno odkiaľ kam SK Dátum podľa článku pozn.
1 810521 GREGUŠKA Miroslav Družst. Veličná OFK Družst. Žaškov 300 9.8.2007 12 P
2 890825 HORECKÝLuboš Jednota Bánová Družst. Párnica 300 10.8.2007 12 P
3 760112 POLIAK Valter OPL Poniky ŠK OU Hrochoť 300 14.8.2007 12 P

neprerokované podania

P.č. rodné číslo priezvisko, meno Odkiaľ Kam SK dátum porušenie čl. pozn.
1 890820 NECHALA Marek ŠKM Savon B.B. FK Šalková 300 23.8.2007 5/2b P
2 871206 VAJDA Matúš Družst. Priechod ŠK Selce 300 23.8.2007 5/1 P